createdAt,value
2019-02-12T00:00:01.302Z,0
2019-02-12T00:01:01.299Z,0
2019-02-12T00:02:01.278Z,0
2019-02-12T00:03:01.272Z,0
2019-02-12T00:04:01.253Z,0
2019-02-12T00:05:01.247Z,0
2019-02-12T00:06:01.221Z,0
2019-02-12T00:07:01.210Z,0
2019-02-12T00:08:01.195Z,0
2019-02-12T00:09:01.170Z,0
2019-02-12T00:10:01.158Z,0
2019-02-12T00:11:01.146Z,0
2019-02-12T00:12:01.131Z,0
2019-02-12T00:13:01.111Z,0
2019-02-12T00:14:01.115Z,0
2019-02-12T00:15:01.102Z,0
2019-02-12T00:16:00.827Z,0
2019-02-12T00:17:00.807Z,0
2019-02-12T00:18:01.051Z,0
2019-02-12T00:19:01.022Z,0
2019-02-12T00:20:01.015Z,0
2019-02-12T00:21:08.733Z,0
2019-02-12T00:22:00.980Z,0
2019-02-12T00:23:00.980Z,0
2019-02-12T00:24:01.000Z,0
2019-02-12T00:25:00.950Z,0
2019-02-12T00:26:00.933Z,0
2019-02-12T00:27:00.909Z,0
2019-02-12T00:28:00.892Z,0
2019-02-12T00:29:00.880Z,0
2019-02-12T00:30:00.943Z,0
2019-02-12T00:31:00.849Z,0
2019-02-12T00:32:00.836Z,0
2019-02-12T00:33:00.844Z,0
2019-02-12T00:34:00.808Z,0
2019-02-12T00:35:00.802Z,0
2019-02-12T00:36:00.822Z,0
2019-02-12T00:37:00.758Z,0
2019-02-12T00:38:00.765Z,0
2019-02-12T00:39:00.732Z,0
2019-02-12T00:40:00.710Z,0
2019-02-12T00:41:00.703Z,0
2019-02-12T00:42:00.699Z,0
2019-02-12T00:43:00.693Z,0
2019-02-12T00:44:00.714Z,0
2019-02-12T00:45:00.648Z,0
2019-02-12T00:46:00.631Z,0
2019-02-12T00:47:00.622Z,0
2019-02-12T00:48:00.601Z,0
2019-02-12T00:49:00.636Z,0
2019-02-12T00:50:00.572Z,0
2019-02-12T00:51:00.561Z,0
2019-02-12T00:52:00.543Z,0
2019-02-12T00:53:00.286Z,0
2019-02-12T00:54:00.517Z,0
2019-02-12T00:55:00.287Z,0
2019-02-12T00:56:00.488Z,0
2019-02-12T00:57:00.463Z,0
2019-02-12T00:58:00.449Z,0
2019-02-12T00:59:00.439Z,0
2019-02-12T01:00:00.421Z,0
2019-02-12T01:01:00.459Z,0
2019-02-12T01:02:00.389Z,0
2019-02-12T01:03:00.381Z,0
2019-02-12T01:04:00.365Z,0
2019-02-12T01:05:00.348Z,0
2019-02-12T01:06:00.339Z,0
2019-02-12T01:07:00.315Z,0
2019-02-12T01:08:00.326Z,0
2019-02-12T01:09:00.288Z,0
2019-02-12T01:10:00.274Z,0
2019-02-12T01:11:00.256Z,0
2019-02-12T01:12:00.261Z,0
2019-02-12T01:13:00.234Z,0
2019-02-12T01:14:00.213Z,0
2019-02-12T01:15:00.227Z,0
2019-02-12T01:16:00.249Z,0
2019-02-12T01:17:00.168Z,0
2019-02-12T01:18:00.156Z,0
2019-02-12T01:19:00.141Z,0
2019-02-12T01:20:00.209Z,0
2019-02-12T01:21:00.109Z,0
2019-02-12T01:22:00.099Z,0
2019-02-12T01:23:00.079Z,0
2019-02-12T01:24:00.070Z,0
2019-02-12T01:25:00.102Z,0
2019-02-12T01:26:00.063Z,0
2019-02-12T01:26:59.858Z,0
2019-02-12T01:28:00.012Z,0
2019-02-12T01:28:59.998Z,0
2019-02-12T01:29:59.983Z,0
2019-02-12T01:30:59.976Z,0
2019-02-12T01:31:59.966Z,0
2019-02-12T01:32:59.974Z,0
2019-02-12T01:33:59.951Z,0
2019-02-12T01:34:59.920Z,0
2019-02-12T01:35:59.894Z,0
2019-02-12T01:36:59.883Z,0
2019-02-12T01:37:59.860Z,0
2019-02-12T01:38:59.851Z,0
2019-02-12T01:39:59.829Z,0
2019-02-12T01:40:59.582Z,0
2019-02-12T01:41:59.801Z,0
2019-02-12T01:42:59.789Z,0
2019-02-12T01:43:59.778Z,0
2019-02-12T01:44:59.762Z,0
2019-02-12T01:45:59.735Z,0
2019-02-12T01:46:59.744Z,0
2019-02-12T01:47:59.716Z,0
2019-02-12T01:48:59.707Z,0
2019-02-12T01:49:59.679Z,0
2019-02-12T01:50:59.721Z,0
2019-02-12T01:51:59.653Z,0
2019-02-12T01:52:59.633Z,0
2019-02-12T01:53:59.622Z,0
2019-02-12T01:54:59.605Z,0
2019-02-12T01:55:59.593Z,0
2019-02-12T01:56:59.572Z,0
2019-02-12T01:57:59.568Z,0
2019-02-12T01:58:59.544Z,0
2019-02-12T01:59:59.536Z,0
2019-02-12T02:00:59.512Z,0
2019-02-12T02:01:59.507Z,0
2019-02-12T02:02:59.502Z,0
2019-02-12T02:03:59.471Z,0
2019-02-12T02:04:59.458Z,0
2019-02-12T02:05:59.446Z,0
2019-02-12T02:06:59.422Z,0
2019-02-12T02:07:59.423Z,0
2019-02-12T02:08:59.399Z,0
2019-02-12T02:09:59.383Z,0
2019-02-12T02:10:59.367Z,0
2019-02-12T02:11:59.359Z,0
2019-02-12T02:12:59.356Z,0
2019-02-12T02:13:59.323Z,0
2019-02-12T02:14:59.068Z,0
2019-02-12T02:15:59.119Z,0
2019-02-12T02:16:59.287Z,0
2019-02-12T02:17:59.264Z,0
2019-02-12T02:18:59.286Z,0
2019-02-12T02:19:59.267Z,0
2019-02-12T02:20:59.220Z,0
2019-02-12T02:21:59.209Z,0
2019-02-12T02:22:59.189Z,0
2019-02-12T02:23:59.173Z,0
2019-02-12T02:24:59.200Z,0
2019-02-12T02:25:59.143Z,0
2019-02-12T02:26:59.127Z,0
2019-02-12T02:27:59.117Z,0
2019-02-12T02:28:58.858Z,0
2019-02-12T02:29:59.081Z,0
2019-02-12T02:30:59.076Z,0
2019-02-12T02:31:59.079Z,0
2019-02-12T02:32:59.058Z,0
2019-02-12T02:33:59.063Z,0
2019-02-12T02:34:59.012Z,0
2019-02-12T02:35:59.012Z,0
2019-02-12T02:36:58.998Z,0
2019-02-12T02:37:58.803Z,0
2019-02-12T02:38:58.952Z,0
2019-02-12T02:39:58.963Z,0
2019-02-12T02:40:58.927Z,0
2019-02-12T02:41:58.904Z,0
2019-02-12T02:42:58.896Z,0
2019-02-12T02:43:58.882Z,0
2019-02-12T02:44:58.887Z,0
2019-02-12T02:45:58.858Z,0
2019-02-12T02:46:58.840Z,0
2019-02-12T02:47:58.826Z,0
2019-02-12T02:48:58.806Z,0
2019-02-12T02:49:58.795Z,0
2019-02-12T02:50:58.785Z,0
2019-02-12T02:52:03.573Z,0
2019-02-12T02:52:58.528Z,0
2019-02-12T02:53:58.750Z,0
2019-02-12T02:54:58.717Z,0
2019-02-12T02:55:58.702Z,0
2019-02-12T02:56:58.744Z,0
2019-02-12T02:57:58.674Z,0
2019-02-12T02:58:58.423Z,0
2019-02-12T02:59:58.695Z,0
2019-02-12T03:00:58.399Z,0
2019-02-12T03:01:58.617Z,0
2019-02-12T03:02:58.354Z,0
2019-02-12T03:03:58.602Z,0
2019-02-12T03:04:58.573Z,0
2019-02-12T03:05:58.327Z,0
2019-02-12T03:06:58.593Z,0
2019-02-12T03:07:58.533Z,0
2019-02-12T03:08:58.281Z,0
2019-02-12T03:09:58.503Z,0
2019-02-12T03:10:59.438Z,0
2019-02-12T03:11:58.474Z,0
2019-02-12T03:12:58.455Z,0
2019-02-12T03:13:58.439Z,0
2019-02-12T03:14:58.435Z,0
2019-02-12T03:15:58.432Z,0
2019-02-12T03:16:58.407Z,0
2019-02-12T03:17:58.140Z,0
2019-02-12T03:18:58.376Z,0
2019-02-12T03:19:58.359Z,0
2019-02-12T03:20:58.341Z,0
2019-02-12T03:22:08.080Z,0
2019-02-12T03:22:58.319Z,0
2019-02-12T03:23:58.322Z,0
2019-02-12T03:24:58.279Z,0
2019-02-12T03:25:58.265Z,0
2019-02-12T03:26:58.263Z,0
2019-02-12T03:27:58.264Z,0
2019-02-12T03:28:58.221Z,0
2019-02-12T03:29:58.207Z,0
2019-02-12T03:30:58.331Z,0
2019-02-12T03:31:58.234Z,0
2019-02-12T03:32:58.251Z,0
2019-02-12T03:33:58.178Z,0
2019-02-12T03:34:58.145Z,0
2019-02-12T03:35:58.129Z,0
2019-02-12T03:36:58.108Z,0
2019-02-12T03:37:58.107Z,0
2019-02-12T03:38:58.088Z,0
2019-02-12T03:39:58.070Z,0
2019-02-12T03:40:58.067Z,0
2019-02-12T03:41:58.050Z,0
2019-02-12T03:42:58.030Z,0
2019-02-12T03:43:58.004Z,0
2019-02-12T03:44:57.988Z,0
2019-02-12T03:45:57.973Z,0
2019-02-12T03:46:57.959Z,0
2019-02-12T03:47:57.960Z,0
2019-02-12T03:48:57.928Z,0
2019-02-12T03:49:57.671Z,0
2019-02-12T03:50:57.905Z,0
2019-02-12T03:51:57.911Z,0
2019-02-12T03:52:57.881Z,0
2019-02-12T03:53:57.863Z,0
2019-02-12T03:54:57.840Z,0
2019-02-12T03:55:57.829Z,0
2019-02-12T03:56:57.811Z,0
2019-02-12T03:57:57.801Z,0
2019-02-12T03:58:57.785Z,0
2019-02-12T03:59:57.803Z,0
2019-02-12T04:00:57.757Z,0
2019-02-12T04:01:57.764Z,0
2019-02-12T04:02:57.489Z,0
2019-02-12T04:03:57.718Z,0
2019-02-12T04:04:57.709Z,0
2019-02-12T04:05:57.677Z,0
2019-02-12T04:06:57.685Z,0
2019-02-12T04:07:57.646Z,0
2019-02-12T04:08:57.638Z,0
2019-02-12T04:09:57.735Z,0
2019-02-12T04:10:57.604Z,0
2019-02-12T04:11:57.591Z,0
2019-02-12T04:12:57.599Z,0
2019-02-12T04:13:57.572Z,0
2019-02-12T04:14:57.304Z,0
2019-02-12T04:15:57.534Z,0
2019-02-12T04:16:57.570Z,0
2019-02-12T04:17:57.516Z,0
2019-02-12T04:18:57.502Z,0
2019-02-12T04:19:57.474Z,0
2019-02-12T04:20:57.518Z,0
2019-02-12T04:21:57.448Z,0
2019-02-12T04:22:57.449Z,0
2019-02-12T04:23:57.410Z,0
2019-02-12T04:24:57.403Z,0
2019-02-12T04:25:57.392Z,0
2019-02-12T04:26:57.370Z,0
2019-02-12T04:27:57.931Z,0
2019-02-12T04:28:57.327Z,0
2019-02-12T04:29:57.313Z,0
2019-02-12T04:30:57.306Z,0
2019-02-12T04:31:57.278Z,0
2019-02-12T04:32:57.262Z,0
2019-02-12T04:33:57.022Z,0
2019-02-12T04:34:57.242Z,0
2019-02-12T04:35:57.287Z,0
2019-02-12T04:36:57.218Z,0
2019-02-12T04:37:57.449Z,0
2019-02-12T04:38:57.168Z,0
2019-02-12T04:39:57.166Z,0
2019-02-12T04:40:57.137Z,0
2019-02-12T04:41:57.122Z,0
2019-02-12T04:42:57.111Z,0
2019-02-12T04:43:57.097Z,0
2019-02-12T04:44:59.068Z,0
2019-02-12T04:45:57.070Z,0
2019-02-12T04:46:57.066Z,0
2019-02-12T04:47:57.044Z,0
2019-02-12T04:48:57.025Z,0
2019-02-12T04:49:57.002Z,0
2019-02-12T04:50:56.982Z,0
2019-02-12T04:51:56.733Z,0
2019-02-12T04:52:56.947Z,0
2019-02-12T04:53:56.930Z,0
2019-02-12T04:54:56.934Z,0
2019-02-12T04:55:56.949Z,0
2019-02-12T04:56:56.883Z,0
2019-02-12T04:57:56.876Z,0
2019-02-12T04:58:56.885Z,0
2019-02-12T04:59:56.599Z,0
2019-02-12T05:00:56.863Z,0
2019-02-12T05:01:56.833Z,0
2019-02-12T05:02:56.793Z,0
2019-02-12T05:03:56.787Z,0
2019-02-12T05:04:56.772Z,0
2019-02-12T05:05:56.789Z,0
2019-02-12T05:06:56.736Z,0
2019-02-12T05:07:56.762Z,0
2019-02-12T05:08:57.977Z,0
2019-02-12T05:09:56.685Z,0
2019-02-12T05:10:56.695Z,0
2019-02-12T05:11:56.645Z,0
2019-02-12T05:12:56.654Z,0
2019-02-12T05:13:56.615Z,0
2019-02-12T05:14:56.604Z,0
2019-02-12T05:15:56.593Z,0
2019-02-12T05:16:56.565Z,0
2019-02-12T05:17:56.314Z,0
2019-02-12T05:18:58.089Z,0
2019-02-12T05:19:56.290Z,0
2019-02-12T05:20:56.583Z,0
2019-02-12T05:21:56.494Z,0
2019-02-12T05:22:56.491Z,0
2019-02-12T05:23:56.463Z,0
2019-02-12T05:24:56.441Z,0
2019-02-12T05:25:56.443Z,0
2019-02-12T05:26:56.419Z,0
2019-02-12T05:27:56.403Z,0
2019-02-12T05:28:56.403Z,0
2019-02-12T05:29:56.404Z,0
2019-02-12T05:30:56.408Z,0
2019-02-12T05:31:56.323Z,0
2019-02-12T05:32:56.344Z,0
2019-02-12T05:33:56.310Z,0
2019-02-12T05:34:58.340Z,0
2019-02-12T05:35:56.275Z,0
2019-02-12T05:36:56.248Z,0
2019-02-12T05:37:56.237Z,0
2019-02-12T05:38:56.225Z,0
2019-02-12T05:39:56.232Z,0
2019-02-12T05:40:56.206Z,0
2019-02-12T05:41:56.170Z,0
2019-02-12T05:42:56.169Z,0
2019-02-12T05:43:56.147Z,0
2019-02-12T05:44:56.133Z,0
2019-02-12T05:45:56.108Z,0
2019-02-12T05:46:55.872Z,0
2019-02-12T05:47:55.862Z,0
2019-02-12T05:48:56.082Z,0
2019-02-12T05:49:56.056Z,0
2019-02-12T05:50:56.022Z,0
2019-02-12T05:51:56.025Z,0
2019-02-12T05:53:03.466Z,0
2019-02-12T05:53:56.021Z,0
2019-02-12T05:54:56.005Z,0
2019-02-12T05:55:55.749Z,0
2019-02-12T05:56:55.954Z,0
2019-02-12T05:57:56.012Z,0
2019-02-12T05:58:55.911Z,0
2019-02-12T05:59:56.615Z,0
2019-02-12T06:00:55.884Z,0
2019-02-12T06:01:55.891Z,0
2019-02-12T06:02:55.851Z,0
2019-02-12T06:03:55.830Z,0
2019-02-12T06:04:55.818Z,0
2019-02-12T06:05:55.790Z,0
2019-02-12T06:06:55.780Z,0
2019-02-12T06:07:55.770Z,0
2019-02-12T06:08:55.888Z,0
2019-02-12T06:09:55.742Z,0
2019-02-12T06:10:55.723Z,0
2019-02-12T06:11:55.732Z,0
2019-02-12T06:12:55.717Z,0
2019-02-12T06:13:55.760Z,0
2019-02-12T06:14:55.674Z,0
2019-02-12T06:15:55.662Z,0
2019-02-12T06:16:55.645Z,0
2019-02-12T06:17:55.618Z,0
2019-02-12T06:18:55.594Z,0
2019-02-12T06:19:55.578Z,0
2019-02-12T06:20:55.562Z,0
2019-02-12T06:21:55.550Z,0
2019-02-12T06:23:03.295Z,0
2019-02-12T06:23:55.529Z,0
2019-02-12T06:24:55.525Z,0
2019-02-12T06:25:55.500Z,0
2019-02-12T06:26:55.475Z,0
2019-02-12T06:27:55.467Z,0
2019-02-12T06:28:55.438Z,5
2019-02-12T06:29:55.187Z,5
2019-02-12T06:30:55.409Z,5
2019-02-12T06:31:55.420Z,5
2019-02-12T06:32:55.393Z,5
2019-02-12T06:33:55.369Z,5
2019-02-12T06:34:55.356Z,0
2019-02-12T06:35:55.337Z,0
2019-02-12T06:36:55.334Z,0
2019-02-12T06:37:55.311Z,5
2019-02-12T06:38:55.297Z,0
2019-02-12T06:39:55.338Z,0
2019-02-12T06:40:55.286Z,5
2019-02-12T06:41:55.254Z,5
2019-02-12T06:42:55.277Z,10
2019-02-12T06:43:55.269Z,10
2019-02-12T06:44:55.219Z,10
2019-02-12T06:45:54.960Z,15
2019-02-12T06:46:55.203Z,15
2019-02-12T06:47:55.184Z,20
2019-02-12T06:48:55.143Z,20
2019-02-12T06:49:55.134Z,25
2019-02-12T06:50:55.134Z,25
2019-02-12T06:51:55.157Z,25
2019-02-12T06:52:55.087Z,25
2019-02-12T06:53:55.073Z,25
2019-02-12T06:54:55.059Z,25
2019-02-12T06:55:55.041Z,25
2019-02-12T06:56:55.041Z,25
2019-02-12T06:57:55.022Z,25
2019-02-12T06:58:55.004Z,25
2019-02-12T06:59:54.990Z,30
2019-02-12T07:00:54.971Z,35
2019-02-12T07:01:54.960Z,35
2019-02-12T07:02:54.942Z,35
2019-02-12T07:03:54.921Z,40
2019-02-12T07:04:54.912Z,35
2019-02-12T07:05:54.906Z,25
2019-02-12T07:06:54.641Z,30
2019-02-12T07:07:56.340Z,35
2019-02-12T07:08:54.853Z,50
2019-02-12T07:09:54.851Z,60
2019-02-12T07:10:54.824Z,70
2019-02-12T07:11:54.869Z,70
2019-02-12T07:12:54.826Z,75
2019-02-12T07:13:54.787Z,75
2019-02-12T07:14:54.772Z,70
2019-02-12T07:15:54.807Z,65
2019-02-12T07:16:54.764Z,45
2019-02-12T07:17:54.727Z,35
2019-02-12T07:18:56.929Z,35
2019-02-12T07:19:54.721Z,35
2019-02-12T07:20:54.478Z,35
2019-02-12T07:21:54.670Z,35
2019-02-12T07:22:54.653Z,35
2019-02-12T07:23:54.449Z,45
2019-02-12T07:24:54.626Z,55
2019-02-12T07:25:55.214Z,60
2019-02-12T07:26:54.605Z,70
2019-02-12T07:27:54.586Z,70
2019-02-12T07:28:54.574Z,75
2019-02-12T07:29:54.558Z,70
2019-02-12T07:30:54.553Z,65
2019-02-12T07:31:54.544Z,70
2019-02-12T07:32:54.519Z,80
2019-02-12T07:33:54.518Z,90
2019-02-12T07:34:54.483Z,105
2019-02-12T07:35:54.471Z,120
2019-02-12T07:36:54.464Z,130
2019-02-12T07:37:54.696Z,125
2019-02-12T07:38:54.440Z,110
2019-02-12T07:39:54.425Z,90
2019-02-12T07:40:54.402Z,75
2019-02-12T07:41:54.398Z,75
2019-02-12T07:42:54.386Z,95
2019-02-12T07:43:54.113Z,110
2019-02-12T07:44:54.354Z,95
2019-02-12T07:45:54.333Z,75
2019-02-12T07:46:54.312Z,70
2019-02-12T07:47:54.137Z,80
2019-02-12T07:48:54.789Z,95
2019-02-12T07:49:54.272Z,100
2019-02-12T07:50:54.270Z,105
2019-02-12T07:51:54.243Z,125
2019-02-12T07:52:54.230Z,135
2019-02-12T07:53:54.223Z,130
2019-02-12T07:54:54.246Z,130
2019-02-12T07:55:56.245Z,145
2019-02-12T07:56:54.178Z,145
2019-02-12T07:57:54.199Z,155
2019-02-12T07:58:54.313Z,165
2019-02-12T07:59:54.171Z,175
2019-02-12T08:00:54.452Z,180
2019-02-12T08:01:54.121Z,185
2019-02-12T08:02:54.104Z,190
2019-02-12T08:03:54.107Z,205
2019-02-12T08:04:54.123Z,185
2019-02-12T08:05:54.068Z,190
2019-02-12T08:06:54.046Z,190
2019-02-12T08:07:54.093Z,205
2019-02-12T08:08:54.044Z,205
2019-02-12T08:09:54.006Z,215
2019-02-12T08:10:53.995Z,225
2019-02-12T08:11:53.987Z,225
2019-02-12T08:12:53.998Z,225
2019-02-12T08:13:54.083Z,210
2019-02-12T08:14:53.725Z,185
2019-02-12T08:15:53.710Z,170
2019-02-12T08:16:53.678Z,150
2019-02-12T08:17:53.672Z,140
2019-02-12T08:18:53.890Z,145
2019-02-12T08:19:53.664Z,155
2019-02-12T08:20:53.877Z,160
2019-02-12T08:21:53.893Z,150
2019-02-12T08:22:53.859Z,165
2019-02-12T08:23:53.825Z,175
2019-02-12T08:24:53.860Z,185
2019-02-12T08:25:53.564Z,200
2019-02-12T08:26:53.800Z,215
2019-02-12T08:27:53.785Z,230
2019-02-12T08:28:54.545Z,235
2019-02-12T08:29:53.762Z,235
2019-02-12T08:30:53.769Z,240
2019-02-12T08:31:53.751Z,240
2019-02-12T08:32:53.764Z,240
2019-02-12T08:33:53.829Z,185
2019-02-12T08:34:54.490Z,145
2019-02-12T08:36:01.995Z,150
2019-02-12T08:36:53.679Z,155
2019-02-12T08:37:53.678Z,140
2019-02-12T08:38:53.641Z,130
2019-02-12T08:39:55.375Z,135
2019-02-12T08:40:53.662Z,130
2019-02-12T08:41:53.613Z,140
2019-02-12T08:42:53.620Z,155
2019-02-12T08:43:53.587Z,145
2019-02-12T08:44:53.572Z,145
2019-02-12T08:45:53.581Z,175
2019-02-12T08:46:55.695Z,190
2019-02-12T08:47:53.544Z,220
2019-02-12T08:48:53.555Z,255
2019-02-12T08:49:53.542Z,290
2019-02-12T08:50:53.514Z,330
2019-02-12T08:51:53.498Z,270
2019-02-12T08:52:53.486Z,185
2019-02-12T08:53:59.844Z,195
2019-02-12T08:54:53.453Z,220
2019-02-12T08:55:53.441Z,200
2019-02-12T08:56:53.430Z,205
2019-02-12T08:57:53.410Z,220
2019-02-12T08:58:53.395Z,210
2019-02-12T08:59:53.400Z,205
2019-02-12T09:00:54.643Z,210
2019-02-12T09:01:53.377Z,255
2019-02-12T09:02:53.376Z,320
2019-02-12T09:03:53.371Z,335
2019-02-12T09:04:53.346Z,280
2019-02-12T09:05:53.332Z,245
2019-02-12T09:06:53.365Z,225
2019-02-12T09:07:53.306Z,205
2019-02-12T09:08:53.308Z,165
2019-02-12T09:09:53.367Z,160
2019-02-12T09:10:53.268Z,180
2019-02-12T09:11:53.248Z,235
2019-02-12T09:12:53.243Z,265
2019-02-12T09:13:53.239Z,295
2019-02-12T09:14:53.224Z,325
2019-02-12T09:15:53.240Z,315
2019-02-12T09:16:53.202Z,350
2019-02-12T09:17:53.188Z,345
2019-02-12T09:18:53.177Z,245
2019-02-12T09:19:53.163Z,205
2019-02-12T09:20:52.963Z,195
2019-02-12T09:21:53.167Z,185
2019-02-12T09:22:53.151Z,200
2019-02-12T09:24:03.386Z,260
2019-02-12T09:24:53.113Z,305
2019-02-12T09:25:53.099Z,350
2019-02-12T09:26:53.107Z,400
2019-02-12T09:27:53.072Z,305
2019-02-12T09:28:53.068Z,255
2019-02-12T09:29:53.046Z,250
2019-02-12T09:30:53.094Z,235
2019-02-12T09:31:53.024Z,205
2019-02-12T09:32:53.025Z,225
2019-02-12T09:33:53.010Z,275
2019-02-12T09:34:53.026Z,290
2019-02-12T09:35:52.995Z,275
2019-02-12T09:36:53.036Z,310
2019-02-12T09:37:52.986Z,280
2019-02-12T09:38:52.947Z,265
2019-02-12T09:39:52.940Z,280
2019-02-12T09:40:52.931Z,295
2019-02-12T09:41:52.915Z,285
2019-02-12T09:42:52.909Z,225
2019-02-12T09:43:52.958Z,230
2019-02-12T09:44:52.889Z,280
2019-02-12T09:45:52.893Z,305
2019-02-12T09:46:52.864Z,305
2019-02-12T09:47:52.852Z,280
2019-02-12T09:48:55.248Z,260
2019-02-12T09:49:52.841Z,300
2019-02-12T09:50:52.823Z,380
2019-02-12T09:51:52.811Z,320
2019-02-12T09:52:52.801Z,240
2019-02-12T09:53:52.791Z,215
2019-02-12T09:54:54.113Z,240
2019-02-12T09:55:52.779Z,275
2019-02-12T09:56:52.765Z,275
2019-02-12T09:57:52.767Z,280
2019-02-12T09:58:52.787Z,315
2019-02-12T09:59:52.724Z,285
2019-02-12T10:00:52.730Z,250
2019-02-12T10:01:52.719Z,230
2019-02-12T10:02:52.725Z,260
2019-02-12T10:03:52.763Z,285
2019-02-12T10:04:52.672Z,280
2019-02-12T10:05:52.660Z,265
2019-02-12T10:06:52.659Z,265
2019-02-12T10:07:53.139Z,275
2019-02-12T10:08:52.645Z,270
2019-02-12T10:09:52.668Z,275
2019-02-12T10:10:52.741Z,305
2019-02-12T10:11:52.602Z,320
2019-02-12T10:12:54.456Z,365
2019-02-12T10:13:52.602Z,360
2019-02-12T10:14:52.584Z,300
2019-02-12T10:15:52.626Z,295
2019-02-12T10:16:52.552Z,325
2019-02-12T10:17:52.331Z,315
2019-02-12T10:18:52.559Z,285
2019-02-12T10:19:52.553Z,305
2019-02-12T10:20:52.504Z,345
2019-02-12T10:21:52.262Z,350
2019-02-12T10:22:52.534Z,315
2019-02-12T10:23:52.480Z,285
2019-02-12T10:24:52.465Z,260
2019-02-12T10:25:52.459Z,260
2019-02-12T10:26:52.443Z,280
2019-02-12T10:27:52.447Z,285
